sensor_id;sensor_type;location;lat;lon;timestamp;P1;P2;P0
14880;PMS7003;7533;51.278;12.588;2022-07-01T00:04:03;18.20;16.40;9.00
14880;PMS7003;7533;51.278;12.588;2022-07-01T00:09:06;15.80;13.40;9.00
14880;PMS7003;7533;51.278;12.588;2022-07-01T00:14:10;13.80;13.00;9.20
14880;PMS7003;7533;51.278;12.588;2022-07-01T00:19:14;19.20;16.00;9.60
14880;PMS7003;7533;51.278;12.588;2022-07-01T00:24:17;17.00;15.40;9.80
14880;PMS7003;7533;51.278;12.588;2022-07-01T00:29:20;15.80;15.60;9.20
14880;PMS7003;7533;51.278;12.588;2022-07-01T00:34:24;14.20;12.00;7.80
14880;PMS7003;7533;51.278;12.588;2022-07-01T00:39:27;15.60;15.60;8.40
14880;PMS7003;7533;51.278;12.588;2022-07-01T00:44:32;17.80;15.00;9.00
14880;PMS7003;7533;51.278;12.588;2022-07-01T00:49:36;17.25;15.00;9.50
14880;PMS7003;7533;51.278;12.588;2022-07-01T00:54:40;15.40;14.20;9.20
14880;PMS7003;7533;51.278;12.588;2022-07-01T00:59:44;14.60;13.40;9.00
14880;PMS7003;7533;51.278;12.588;2022-07-01T01:04:49;16.00;14.75;9.00
14880;PMS7003;7533;51.278;12.588;2022-07-01T01:09:52;17.00;15.25;9.00
14880;PMS7003;7533;51.278;12.588;2022-07-01T01:14:55;15.00;14.25;10.75
14880;PMS7003;7533;51.278;12.588;2022-07-01T01:20:00;13.75;12.75;9.00
14880;PMS7003;7533;51.278;12.588;2022-07-01T01:25:05;17.80;16.60;9.60
14880;PMS7003;7533;51.278;12.588;2022-07-01T01:30:09;18.25;15.25;9.00
14880;PMS7003;7533;51.278;12.588;2022-07-01T01:35:14;16.00;12.25;7.75
14880;PMS7003;7533;51.278;12.588;2022-07-01T01:40:18;13.00;12.50;8.50
14880;PMS7003;7533;51.278;12.588;2022-07-01T01:45:21;16.75;13.75;8.25
14880;PMS7003;7533;51.278;12.588;2022-07-01T01:50:24;14.80;14.20;8.60
14880;PMS7003;7533;51.278;12.588;2022-07-01T01:55:29;15.25;14.25;8.50
14880;PMS7003;7533;51.278;12.588;2022-07-01T02:00:32;15.75;13.50;9.50
14880;PMS7003;7533;51.278;12.588;2022-07-01T02:05:34;11.50;11.00;7.00
14880;PMS7003;7533;51.278;12.588;2022-07-01T02:10:39;15.75;13.25;9.00
14880;PMS7003;7533;51.278;12.588;2022-07-01T02:15:41;16.50;14.25;8.50
14880;PMS7003;7533;51.278;12.588;2022-07-01T02:20:44;16.25;12.25;8.00
14880;PMS7003;7533;51.278;12.588;2022-07-01T02:25:48;15.75;13.50;8.50
14880;PMS7003;7533;51.278;12.588;2022-07-01T02:30:51;15.75;11.75;7.75
14880;PMS7003;7533;51.278;12.588;2022-07-01T02:35:55;12.25;11.00;7.00
14880;PMS7003;7533;51.278;12.588;2022-07-01T02:40:59;14.00;12.75;8.00
14880;PMS7003;7533;51.278;12.588;2022-07-01T02:46:02;14.50;14.25;8.50
14880;PMS7003;7533;51.278;12.588;2022-07-01T02:51:05;16.50;15.25;11.25
14880;PMS7003;7533;51.278;12.588;2022-07-01T02:56:09;16.40;15.00;10.00
14880;PMS7003;7533;51.278;12.588;2022-07-01T03:01:12;14.50;12.75;8.25
14880;PMS7003;7533;51.278;12.588;2022-07-01T03:06:15;19.20;16.60;11.00
14880;PMS7003;7533;51.278;12.588;2022-07-01T03:11:19;18.75;15.50;10.50
14880;PMS7003;7533;51.278;12.588;2022-07-01T03:16:22;17.80;16.60;10.60
14880;PMS7003;7533;51.278;12.588;2022-07-01T03:21:25;16.00;15.20;10.00
14880;PMS7003;7533;51.278;12.588;2022-07-01T03:26:29;19.50;17.25;11.00
14880;PMS7003;7533;51.278;12.588;2022-07-01T03:31:38;17.00;16.00;10.00
14880;PMS7003;7533;51.278;12.588;2022-07-01T03:36:41;17.40;16.00;11.60
14880;PMS7003;7533;51.278;12.588;2022-07-01T03:41:45;16.60;14.20;10.00
14880;PMS7003;7533;51.278;12.588;2022-07-01T03:46:48;20.20;15.80;11.00
14880;PMS7003;7533;51.278;12.588;2022-07-01T03:51:52;17.00;16.20;10.80
14880;PMS7003;7533;51.278;12.588;2022-07-01T03:56:56;17.00;15.00;10.00
14880;PMS7003;7533;51.278;12.588;2022-07-01T04:01:59;17.20;15.80;10.80
14880;PMS7003;7533;51.278;12.588;2022-07-01T04:07:03;17.00;13.75;9.50
14880;PMS7003;7533;51.278;12.588;2022-07-01T04:12:10;15.20;14.00;10.60
14880;PMS7003;7533;51.278;12.588;2022-07-01T04:17:14;18.00;15.60;10.00
14880;PMS7003;7533;51.278;12.588;2022-07-01T04:22:17;15.60;15.60;10.20
14880;PMS7003;7533;51.278;12.588;2022-07-01T04:27:36;19.60;18.60;11.60
14880;PMS7003;7533;51.278;12.588;2022-07-01T04:32:39;18.25;15.25;10.25
14880;PMS7003;7533;51.278;12.588;2022-07-01T04:37:43;21.60;18.00;12.60
14880;PMS7003;7533;51.278;12.588;2022-07-01T04:42:48;17.40;16.60;11.00
14880;PMS7003;7533;51.278;12.588;2022-07-01T04:47:51;19.00;17.40;12.00
14880;PMS7003;7533;51.278;12.588;2022-07-01T04:52:54;17.40;15.00;10.80
14880;PMS7003;7533;51.278;12.588;2022-07-01T04:57:58;17.40;16.60;11.60
14880;PMS7003;7533;51.278;12.588;2022-07-01T05:03:01;21.00;19.00;13.00
14880;PMS7003;7533;51.278;12.588;2022-07-01T05:08:04;17.80;17.00;13.00
14880;PMS7003;7533;51.278;12.588;2022-07-01T05:13:08;20.60;17.80;11.60
14880;PMS7003;7533;51.278;12.588;2022-07-01T05:18:11;20.20;17.40;12.20
14880;PMS7003;7533;51.278;12.588;2022-07-01T05:23:32;17.60;16.80;10.80
14880;PMS7003;7533;51.278;12.588;2022-07-01T05:28:36;18.60;16.80;10.20
14880;PMS7003;7533;51.278;12.588;2022-07-01T05:33:39;18.00;16.20;11.60
14880;PMS7003;7533;51.278;12.588;2022-07-01T05:38:42;16.40;16.40;10.00
14880;PMS7003;7533;51.278;12.588;2022-07-01T05:43:46;13.60;12.00;10.60
14880;PMS7003;7533;51.278;12.588;2022-07-01T05:48:49;18.80;16.40;12.20
14880;PMS7003;7533;51.278;12.588;2022-07-01T05:53:51;15.00;14.20;10.40
14880;PMS7003;7533;51.278;12.588;2022-07-01T05:58:56;13.60;13.60;10.40
14880;PMS7003;7533;51.278;12.588;2022-07-01T06:03:59;20.00;17.60;11.60
14880;PMS7003;7533;51.278;12.588;2022-07-01T06:09:02;14.60;13.60;9.60
14880;PMS7003;7533;51.278;12.588;2022-07-01T06:14:07;17.00;15.40;10.20
14880;PMS7003;7533;51.278;12.588;2022-07-01T06:19:09;15.60;14.00;11.20
14880;PMS7003;7533;51.278;12.588;2022-07-01T06:24:12;20.00;17.80;12.00
14880;PMS7003;7533;51.278;12.588;2022-07-01T06:29:17;17.80;14.20;10.40
14880;PMS7003;7533;51.278;12.588;2022-07-01T06:34:20;16.00;14.60;10.00
14880;PMS7003;7533;51.278;12.588;2022-07-01T06:39:23;15.20;14.80;10.80
14880;PMS7003;7533;51.278;12.588;2022-07-01T06:44:27;14.80;14.60;10.40
14880;PMS7003;7533;51.278;12.588;2022-07-01T06:49:30;17.80;17.20;10.60
14880;PMS7003;7533;51.278;12.588;2022-07-01T06:54:33;16.80;15.60;12.00
14880;PMS7003;7533;51.278;12.588;2022-07-01T06:59:40;17.60;17.60;11.00
14880;PMS7003;7533;51.278;12.588;2022-07-01T07:04:43;17.20;15.60;12.00
14880;PMS7003;7533;51.278;12.588;2022-07-01T07:10:03;16.00;16.00;11.80
14880;PMS7003;7533;51.278;12.588;2022-07-01T07:15:09;21.40;18.40;13.00
14880;PMS7003;7533;51.278;12.588;2022-07-01T07:20:12;23.00;21.40;14.00
14880;PMS7003;7533;51.278;12.588;2022-07-01T07:25:15;21.20;21.00;13.80
14880;PMS7003;7533;51.278;12.588;2022-07-01T07:30:19;26.20;22.80;12.80
14880;PMS7003;7533;51.278;12.588;2022-07-01T07:35:22;17.50;16.00;11.00
14880;PMS7003;7533;51.278;12.588;2022-07-01T07:40:25;16.25;15.50;11.00
14880;PMS7003;7533;51.278;12.588;2022-07-01T07:45:29;14.75;13.75;8.75
14880;PMS7003;7533;51.278;12.588;2022-07-01T07:50:32;15.00;13.25;9.25
14880;PMS7003;7533;51.278;12.588;2022-07-01T07:55:35;13.50;12.50;8.50
14880;PMS7003;7533;51.278;12.588;2022-07-01T08:00:39;13.25;11.50;7.75
14880;PMS7003;7533;51.278;12.588;2022-07-01T08:05:42;14.00;13.25;7.75
14880;PMS7003;7533;51.278;12.588;2022-07-01T08:10:45;12.00;11.00;7.75
14880;PMS7003;7533;51.278;12.588;2022-07-01T08:15:49;12.00;11.00;8.00
14880;PMS7003;7533;51.278;12.588;2022-07-01T08:20:52;10.50;10.50;6.50
14880;PMS7003;7533;51.278;12.588;2022-07-01T08:25:55;9.50;9.50;7.00
14880;PMS7003;7533;51.278;12.588;2022-07-01T08:31:00;13.25;11.00;6.00
14880;PMS7003;7533;51.278;12.588;2022-07-01T08:36:03;9.50;9.50;6.50
14880;PMS7003;7533;51.278;12.588;2022-07-01T08:41:07;9.25;8.75;6.00
14880;PMS7003;7533;51.278;12.588;2022-07-01T08:46:11;12.00;12.00;9.25
14880;PMS7003;7533;51.278;12.588;2022-07-01T08:51:15;12.50;11.75;8.00
14880;PMS7003;7533;51.278;12.588;2022-07-01T08:56:18;14.75;12.00;8.50
14880;PMS7003;7533;51.278;12.588;2022-07-01T09:01:39;13.00;13.00;10.00
14880;PMS7003;7533;51.278;12.588;2022-07-01T09:06:43;16.25;14.75;8.50
14880;PMS7003;7533;51.278;12.588;2022-07-01T09:11:47;15.75;15.50;9.00
14880;PMS7003;7533;51.278;12.588;2022-07-01T09:16:56;15.50;13.75;7.75
14880;PMS7003;7533;51.278;12.588;2022-07-01T09:22:00;15.25;14.25;8.25
14880;PMS7003;7533;51.278;12.588;2022-07-01T09:27:06;13.00;13.00;8.50
14880;PMS7003;7533;51.278;12.588;2022-07-01T09:32:14;15.50;15.25;10.00
14880;PMS7003;7533;51.278;12.588;2022-07-01T09:37:20;16.50;14.50;9.25
14880;PMS7003;7533;51.278;12.588;2022-07-01T09:42:24;21.50;17.50;10.75
14880;PMS7003;7533;51.278;12.588;2022-07-01T09:47:30;20.00;16.25;11.50
14880;PMS7003;7533;51.278;12.588;2022-07-01T09:52:34;22.00;19.25;11.25
14880;PMS7003;7533;51.278;12.588;2022-07-01T09:57:38;21.75;21.00;12.00
14880;PMS7003;7533;51.278;12.588;2022-07-01T10:02:43;28.20;24.80;14.40
14880;PMS7003;7533;51.278;12.588;2022-07-01T10:07:50;23.50;20.50;13.00
14880;PMS7003;7533;51.278;12.588;2022-07-01T10:12:59;29.25;25.00;12.75
14880;PMS7003;7533;51.278;12.588;2022-07-01T10:18:06;21.00;19.50;12.00
14880;PMS7003;7533;51.278;12.588;2022-07-01T10:23:22;21.50;20.50;12.00
14880;PMS7003;7533;51.278;12.588;2022-07-01T10:28:27;21.75;20.00;12.75
14880;PMS7003;7533;51.278;12.588;2022-07-01T10:33:33;23.25;19.50;12.00
14880;PMS7003;7533;51.278;12.588;2022-07-01T10:44:24;24.50;20.75;11.75
14880;PMS7003;7533;51.278;12.588;2022-07-01T10:54:56;23.00;18.25;12.25
14880;PMS7003;7533;51.278;12.588;2022-07-01T11:05:37;13.75;12.50;6.00
14880;PMS7003;7533;51.278;12.588;2022-07-01T11:10:40;8.25;8.25;5.75
14880;PMS7003;7533;51.278;12.588;2022-07-01T11:15:45;6.25;6.25;4.00
14880;PMS7003;7533;51.278;12.588;2022-07-01T11:20:50;10.00;9.00;5.50
14880;PMS7003;7533;51.278;12.588;2022-07-01T11:25:53;13.75;12.25;8.00
14880;PMS7003;7533;51.278;12.588;2022-07-01T11:30:59;17.75;17.00;11.50
14880;PMS7003;7533;51.278;12.588;2022-07-01T11:36:04;11.75;10.00;6.50
14880;PMS7003;7533;51.278;12.588;2022-07-01T11:41:25;11.00;9.25;6.00
14880;PMS7003;7533;51.278;12.588;2022-07-01T11:46:28;7.50;7.00;5.25
14880;PMS7003;7533;51.278;12.588;2022-07-01T11:51:32;9.50;7.25;5.00
14880;PMS7003;7533;51.278;12.588;2022-07-01T11:56:35;10.00;8.00;4.25
14880;PMS7003;7533;51.278;12.588;2022-07-01T12:01:40;8.50;7.25;4.00
14880;PMS7003;7533;51.278;12.588;2022-07-01T12:06:44;10.25;8.00;5.00
14880;PMS7003;7533;51.278;12.588;2022-07-01T12:11:49;6.00;6.00;3.50
14880;PMS7003;7533;51.278;12.588;2022-07-01T12:16:54;8.00;8.00;5.00
14880;PMS7003;7533;51.278;12.588;2022-07-01T12:22:00;8.25;8.25;4.50
14880;PMS7003;7533;51.278;12.588;2022-07-01T12:27:03;9.00;8.00;4.50
14880;PMS7003;7533;51.278;12.588;2022-07-01T12:32:09;11.00;7.25;5.00
14880;PMS7003;7533;51.278;12.588;2022-07-01T12:37:16;9.00;8.00;4.75
14880;PMS7003;7533;51.278;12.588;2022-07-01T12:42:21;12.50;10.50;7.00
14880;PMS7003;7533;51.278;12.588;2022-07-01T12:47:26;8.75;8.75;4.00
14880;PMS7003;7533;51.278;12.588;2022-07-01T12:52:31;6.00;6.00;4.00
14880;PMS7003;7533;51.278;12.588;2022-07-01T12:57:34;7.00;4.00;3.00
14880;PMS7003;7533;51.278;12.588;2022-07-01T13:02:39;7.75;6.75;4.00
14880;PMS7003;7533;51.278;12.588;2022-07-01T13:07:43;5.00;4.50;3.00
14880;PMS7003;7533;51.278;12.588;2022-07-01T13:12:47;5.00;5.00;2.00
14880;PMS7003;7533;51.278;12.588;2022-07-01T13:17:50;3.00;2.00;1.00
14880;PMS7003;7533;51.278;12.588;2022-07-01T13:22:55;3.75;3.75;2.00
14880;PMS7003;7533;51.278;12.588;2022-07-01T13:27:58;2.75;2.75;1.25
14880;PMS7003;7533;51.278;12.588;2022-07-01T13:33:01;2.25;2.25;1.00
14880;PMS7003;7533;51.278;12.588;2022-07-01T13:38:05;3.25;3.00;2.00
14880;PMS7003;7533;51.278;12.588;2022-07-01T13:43:08;3.00;2.00;1.00
14880;PMS7003;7533;51.278;12.588;2022-07-01T13:48:11;2.00;1.25;0.50
14880;PMS7003;7533;51.278;12.588;2022-07-01T13:53:15;2.25;2.25;1.00
14880;PMS7003;7533;51.278;12.588;2022-07-01T13:58:18;1.00;1.00;0.00
14880;PMS7003;7533;51.278;12.588;2022-07-01T14:03:21;1.00;1.00;1.00
14880;PMS7003;7533;51.278;12.588;2022-07-01T14:08:26;0.50;0.50;0.00
14880;PMS7003;7533;51.278;12.588;2022-07-01T14:13:29;1.50;1.50;0.00
14880;PMS7003;7533;51.278;12.588;2022-07-01T14:18:31;1.50;1.50;0.00
14880;PMS7003;7533;51.278;12.588;2022-07-01T14:23:36;2.25;1.00;0.25
14880;PMS7003;7533;51.278;12.588;2022-07-01T14:28:39;1.50;1.50;0.00
14880;PMS7003;7533;51.278;12.588;2022-07-01T14:33:42;1.00;1.00;0.00
14880;PMS7003;7533;51.278;12.588;2022-07-01T14:38:47;3.25;3.25;0.75
14880;PMS7003;7533;51.278;12.588;2022-07-01T14:43:50;2.00;1.00;0.00
14880;PMS7003;7533;51.278;12.588;2022-07-01T14:48:53;2.25;2.00;0.50
14880;PMS7003;7533;51.278;12.588;2022-07-01T14:53:57;1.50;1.50;1.00
14880;PMS7003;7533;51.278;12.588;2022-07-01T14:59:00;2.00;2.00;1.00
14880;PMS7003;7533;51.278;12.588;2022-07-01T15:04:08;1.75;1.75;1.00
14880;PMS7003;7533;51.278;12.588;2022-07-01T15:09:12;3.50;3.50;2.00
14880;PMS7003;7533;51.278;12.588;2022-07-01T15:14:15;2.25;2.00;1.00
14880;PMS7003;7533;51.278;12.588;2022-07-01T15:19:18;3.00;3.00;2.00
14880;PMS7003;7533;51.278;12.588;2022-07-01T15:24:23;2.25;2.25;1.00
14880;PMS7003;7533;51.278;12.588;2022-07-01T15:29:26;4.00;4.00;1.50
14880;PMS7003;7533;51.278;12.588;2022-07-01T15:34:29;2.25;2.25;1.00
14880;PMS7003;7533;51.278;12.588;2022-07-01T15:39:33;3.00;3.00;1.25
14880;PMS7003;7533;51.278;12.588;2022-07-01T15:44:36;2.50;2.50;1.00
14880;PMS7003;7533;51.278;12.588;2022-07-01T15:49:39;3.75;3.00;2.00
14880;PMS7003;7533;51.278;12.588;2022-07-01T15:54:44;1.50;1.50;1.00
14880;PMS7003;7533;51.278;12.588;2022-07-01T15:59:47;4.75;4.25;2.00
14880;PMS7003;7533;51.278;12.588;2022-07-01T16:04:50;4.50;4.50;3.00
14880;PMS7003;7533;51.278;12.588;2022-07-01T16:09:58;8.00;7.00;5.00
14880;PMS7003;7533;51.278;12.588;2022-07-01T16:15:06;10.75;9.75;7.00
14880;PMS7003;7533;51.278;12.588;2022-07-01T16:20:11;9.25;9.25;7.00
14880;PMS7003;7533;51.278;12.588;2022-07-01T16:25:18;11.00;10.00;7.00
14880;PMS7003;7533;51.278;12.588;2022-07-01T16:30:22;9.25;9.00;5.75
14880;PMS7003;7533;51.278;12.588;2022-07-01T16:35:37;9.00;8.75;6.00
14880;PMS7003;7533;51.278;12.588;2022-07-01T16:40:46;8.50;8.50;6.50
14880;PMS7003;7533;51.278;12.588;2022-07-01T16:45:58;11.00;9.00;6.00
14880;PMS7003;7533;51.278;12.588;2022-07-01T16:51:05;9.25;9.00;5.50
14880;PMS7003;7533;51.278;12.588;2022-07-01T16:56:12;10.00;9.50;5.25
14880;PMS7003;7533;51.278;12.588;2022-07-01T17:01:20;9.75;9.75;5.00
14880;PMS7003;7533;51.278;12.588;2022-07-01T17:06:23;9.00;8.00;5.00
14880;PMS7003;7533;51.278;12.588;2022-07-01T17:11:29;10.75;10.75;7.00
14880;PMS7003;7533;51.278;12.588;2022-07-01T17:16:32;9.00;8.00;5.25
14880;PMS7003;7533;51.278;12.588;2022-07-01T17:21:38;10.25;9.50;6.00
14880;PMS7003;7533;51.278;12.588;2022-07-01T17:26:48;7.75;7.75;4.75
14880;PMS7003;7533;51.278;12.588;2022-07-01T17:32:01;7.50;7.50;5.00
14880;PMS7003;7533;51.278;12.588;2022-07-01T17:37:05;10.00;9.25;5.50
14880;PMS7003;7533;51.278;12.588;2022-07-01T17:42:09;9.00;7.25;4.00
14880;PMS7003;7533;51.278;12.588;2022-07-01T17:47:14;7.00;6.00;4.00
14880;PMS7003;7533;51.278;12.588;2022-07-01T17:52:18;8.00;8.00;4.00
14880;PMS7003;7533;51.278;12.588;2022-07-01T17:57:22;6.75;6.75;4.25
14880;PMS7003;7533;51.278;12.588;2022-07-01T18:02:28;8.25;6.50;4.25
14880;PMS7003;7533;51.278;12.588;2022-07-01T18:07:34;9.00;7.50;5.00
14880;PMS7003;7533;51.278;12.588;2022-07-01T18:12:40;10.00;8.25;4.25
14880;PMS7003;7533;51.278;12.588;2022-07-01T18:17:49;7.50;7.50;4.50
14880;PMS7003;7533;51.278;12.588;2022-07-01T18:22:57;9.25;8.50;4.50
14880;PMS7003;7533;51.278;12.588;2022-07-01T18:28:05;8.50;7.50;4.25
14880;PMS7003;7533;51.278;12.588;2022-07-01T18:33:13;8.00;8.00;4.75
14880;PMS7003;7533;51.278;12.588;2022-07-01T18:38:20;12.00;8.50;4.50
14880;PMS7003;7533;51.278;12.588;2022-07-01T18:43:26;8.50;7.50;4.00
14880;PMS7003;7533;51.278;12.588;2022-07-01T18:48:29;9.00;9.00;4.00
14880;PMS7003;7533;51.278;12.588;2022-07-01T18:53:32;7.00;7.00;4.50
14880;PMS7003;7533;51.278;12.588;2022-07-01T18:58:37;7.75;6.25;4.00
14880;PMS7003;7533;51.278;12.588;2022-07-01T19:03:40;6.25;6.25;3.25
14880;PMS7003;7533;51.278;12.588;2022-07-01T19:08:43;8.75;8.00;4.75
14880;PMS7003;7533;51.278;12.588;2022-07-01T19:13:47;7.75;6.25;4.00
14880;PMS7003;7533;51.278;12.588;2022-07-01T19:18:50;7.75;6.75;4.00
14880;PMS7003;7533;51.278;12.588;2022-07-01T19:23:53;8.50;5.50;4.00
14880;PMS7003;7533;51.278;12.588;2022-07-01T19:28:57;8.75;8.00;5.00
14880;PMS7003;7533;51.278;12.588;2022-07-01T19:34:00;8.50;8.25;5.25
14880;PMS7003;7533;51.278;12.588;2022-07-01T19:39:03;11.75;10.00;5.00
14880;PMS7003;7533;51.278;12.588;2022-07-01T19:44:07;11.75;10.75;5.75
14880;PMS7003;7533;51.278;12.588;2022-07-01T19:49:10;13.75;12.25;7.50
14880;PMS7003;7533;51.278;12.588;2022-07-01T19:54:13;15.25;13.25;8.00
14880;PMS7003;7533;51.278;12.588;2022-07-01T19:59:18;12.50;11.00;8.00
14880;PMS7003;7533;51.278;12.588;2022-07-01T20:04:23;10.25;9.00;6.00
14880;PMS7003;7533;51.278;12.588;2022-07-01T20:09:26;10.25;8.75;6.00
14880;PMS7003;7533;51.278;12.588;2022-07-01T20:14:30;12.25;11.00;6.00
14880;PMS7003;7533;51.278;12.588;2022-07-01T20:19:33;8.50;7.00;5.25
14880;PMS7003;7533;51.278;12.588;2022-07-01T20:24:36;9.75;9.75;5.00
14880;PMS7003;7533;51.278;12.588;2022-07-01T20:29:40;7.25;7.00;5.00
14880;PMS7003;7533;51.278;12.588;2022-07-01T20:34:43;8.75;8.75;5.50
14880;PMS7003;7533;51.278;12.588;2022-07-01T20:39:46;7.00;7.00;4.25
14880;PMS7003;7533;51.278;12.588;2022-07-01T20:44:50;6.00;6.00;4.25
14880;PMS7003;7533;51.278;12.588;2022-07-01T20:49:53;7.00;6.25;4.00
14880;PMS7003;7533;51.278;12.588;2022-07-01T20:54:57;6.50;6.50;4.00
14880;PMS7003;7533;51.278;12.588;2022-07-01T21:00:01;7.00;6.50;4.25
14880;PMS7003;7533;51.278;12.588;2022-07-01T21:05:04;7.75;6.50;3.25
14880;PMS7003;7533;51.278;12.588;2022-07-01T21:10:08;7.50;5.50;3.00
14880;PMS7003;7533;51.278;12.588;2022-07-01T21:15:13;7.50;6.25;3.00
14880;PMS7003;7533;51.278;12.588;2022-07-01T21:20:16;5.75;5.25;3.00
14880;PMS7003;7533;51.278;12.588;2022-07-01T21:25:21;5.25;5.25;3.50
14880;PMS7003;7533;51.278;12.588;2022-07-01T21:30:26;6.75;6.75;4.00
14880;PMS7003;7533;51.278;12.588;2022-07-01T21:35:29;5.00;5.00;2.50
14880;PMS7003;7533;51.278;12.588;2022-07-01T21:40:32;5.50;5.50;3.75
14880;PMS7003;7533;51.278;12.588;2022-07-01T21:45:37;6.00;6.00;3.00
14880;PMS7003;7533;51.278;12.588;2022-07-01T21:50:42;6.00;6.00;4.00
14880;PMS7003;7533;51.278;12.588;2022-07-01T21:55:45;6.00;5.25;3.00
14880;PMS7003;7533;51.278;12.588;2022-07-01T22:00:50;5.75;5.75;4.00
14880;PMS7003;7533;51.278;12.588;2022-07-01T22:05:53;8.25;7.00;4.00
14880;PMS7003;7533;51.278;12.588;2022-07-01T22:11:14;6.25;5.75;3.50
14880;PMS7003;7533;51.278;12.588;2022-07-01T22:16:20;4.75;4.75;2.00
14880;PMS7003;7533;51.278;12.588;2022-07-01T22:21:25;5.00;4.50;3.00
14880;PMS7003;7533;51.278;12.588;2022-07-01T22:26:30;6.00;5.25;2.00
14880;PMS7003;7533;51.278;12.588;2022-07-01T22:31:34;6.50;5.50;3.00
14880;PMS7003;7533;51.278;12.588;2022-07-01T22:36:38;4.00;4.00;2.00
14880;PMS7003;7533;51.278;12.588;2022-07-01T22:41:42;5.50;5.00;3.00
14880;PMS7003;7533;51.278;12.588;2022-07-01T22:46:49;7.25;5.75;4.00
14880;PMS7003;7533;51.278;12.588;2022-07-01T22:52:00;6.25;5.00;3.50
14880;PMS7003;7533;51.278;12.588;2022-07-01T22:57:08;6.50;6.00;3.00
14880;PMS7003;7533;51.278;12.588;2022-07-01T23:02:19;5.00;5.00;3.00
14880;PMS7003;7533;51.278;12.588;2022-07-01T23:07:24;6.00;4.75;3.25
14880;PMS7003;7533;51.278;12.588;2022-07-01T23:12:36;5.50;5.50;2.50
14880;PMS7003;7533;51.278;12.588;2022-07-01T23:17:42;8.50;7.50;3.75
14880;PMS7003;7533;51.278;12.588;2022-07-01T23:22:46;6.75;5.75;3.75
14880;PMS7003;7533;51.278;12.588;2022-07-01T23:27:53;8.25;6.75;3.00
14880;PMS7003;7533;51.278;12.588;2022-07-01T23:32:58;6.75;6.75;4.25
14880;PMS7003;7533;51.278;12.588;2022-07-01T23:38:05;5.50;3.50;2.00
14880;PMS7003;7533;51.278;12.588;2022-07-01T23:43:14;4.50;4.50;3.25
14880;PMS7003;7533;51.278;12.588;2022-07-01T23:48:19;4.00;4.00;3.00
14880;PMS7003;7533;51.278;12.588;2022-07-01T23:53:21;5.25;5.25;3.50
14880;PMS7003;7533;51.278;12.588;2022-07-01T23:58:24;4.25;3.00;2.00
